Terminal Aerodrome Forecast
Issued by NWS Sterling, VA

Home | Current Version | Previous Version | Text Only | Print | Product List | Glossary On
Versions: 1 2 3 4 5 6 7 8 9 10 11 12 13 14 15 16 17 18 19 20 21
000
FTUS41 KLWX 261511 AAA
TAFDCA
TAF AMD
KDCA 261511Z 2615/2712 08010KT P6SM OVC010
     FM270500 14007KT 4SM -DZ OVC015
     FM270600 15007KT P6SM OVC010
     FM270800 17007KT P6SM OVC015
     FM271100 19007KT P6SM BKN008=

USA.gov is the U.S. government's official web portal to all federal, state and local government web resources and services.